createdAt,value
2023-05-25T00:01:05.007Z,25.43
2023-05-25T00:03:32.557Z,25.83
2023-05-25T00:06:02.802Z,25.17
2023-05-25T00:08:30.177Z,26.80
2023-05-25T00:10:57.292Z,27.80
2023-05-25T00:13:24.402Z,25.37
2023-05-25T00:15:51.525Z,25.20
2023-05-25T00:18:18.751Z,26.23
2023-05-25T00:20:47.578Z,27.43
2023-05-25T00:23:14.950Z,27.67
2023-05-25T00:25:42.580Z,27.63
2023-05-25T00:28:11.259Z,33.00
2023-05-25T00:30:38.830Z,25.80
2023-05-25T00:33:06.692Z,25.50
2023-05-25T00:35:33.809Z,28.77
2023-05-25T00:38:00.810Z,27.07
2023-05-25T00:40:27.930Z,31.77
2023-05-25T00:42:56.132Z,29.37
2023-05-25T00:45:23.483Z,26.63
2023-05-25T00:47:54.365Z,28.83
2023-05-25T00:50:47.559Z,26.43
2023-05-25T00:53:14.904Z,31.50
2023-05-25T00:55:44.836Z,27.00
2023-05-25T00:58:16.779Z,29.50
2023-05-25T01:00:46.768Z,29.07
2023-05-25T01:03:17.774Z,29.13
2023-05-25T01:05:48.743Z,28.53
2023-05-25T01:08:19.006Z,28.87
2023-05-25T01:10:52.344Z,28.27
2023-05-25T01:13:20.992Z,26.83
2023-05-25T01:15:49.908Z,27.60
2023-05-25T01:18:18.081Z,30.30
2023-05-25T01:21:13.284Z,34.60
2023-05-25T01:24:13.709Z,31.90
2023-05-25T01:26:47.296Z,32.93
2023-05-25T01:29:17.256Z,32.60
2023-05-25T01:31:47.437Z,36.20
2023-05-25T01:34:16.015Z,29.73
2023-05-25T01:36:43.074Z,33.27
2023-05-25T01:39:11.197Z,32.37
2023-05-25T01:41:38.611Z,34.43
2023-05-25T01:44:07.812Z,32.40
2023-05-25T01:46:41.552Z,33.60
2023-05-25T01:49:44.968Z,42.60
2023-05-25T01:52:32.442Z,31.40
2023-05-25T01:55:18.640Z,32.90
2023-05-25T01:57:50.722Z,33.90
2023-05-25T02:00:21.376Z,36.37
2023-05-25T02:02:50.668Z,32.43
2023-05-25T02:05:20.872Z,34.03
2023-05-25T02:07:47.906Z,31.07
2023-05-25T02:10:15.000Z,28.53
2023-05-25T02:12:42.784Z,32.33
2023-05-25T02:15:10.810Z,30.00
2023-05-25T02:17:38.602Z,34.73
2023-05-25T02:20:06.994Z,29.53
2023-05-25T02:22:34.144Z,29.83
2023-05-25T02:25:01.136Z,33.23
2023-05-25T02:27:29.985Z,30.00
2023-05-25T02:29:56.954Z,33.70
2023-05-25T02:32:26.089Z,36.33
2023-05-25T02:34:53.093Z,31.63
2023-05-25T02:37:20.129Z,31.13
2023-05-25T02:39:48.317Z,31.67
2023-05-25T02:42:15.428Z,30.13
2023-05-25T02:44:48.321Z,32.63
2023-05-25T02:47:16.514Z,34.73
2023-05-25T02:49:44.078Z,36.80
2023-05-25T02:52:11.536Z,35.93
2023-05-25T02:54:39.101Z,38.20
2023-05-25T02:57:08.800Z,36.27
2023-05-25T02:59:36.136Z,29.00
2023-05-25T03:02:03.804Z,31.17
2023-05-25T03:04:33.982Z,30.37
2023-05-25T03:07:01.668Z,27.60
2023-05-25T03:09:29.241Z,34.13
2023-05-25T03:11:56.448Z,26.73
2023-05-25T03:14:24.621Z,29.10
2023-05-25T03:16:56.976Z,31.50
2023-05-25T03:19:24.727Z,33.73
2023-05-25T03:21:51.652Z,32.87
2023-05-25T03:24:19.637Z,28.63
2023-05-25T03:26:46.795Z,25.83
2023-05-25T03:29:14.964Z,28.33
2023-05-25T03:31:41.959Z,29.37
2023-05-25T03:34:09.149Z,30.60
2023-05-25T03:36:39.092Z,31.07
2023-05-25T03:39:07.176Z,30.37
2023-05-25T03:41:34.206Z,29.77
2023-05-25T03:44:01.149Z,37.03
2023-05-25T03:46:28.173Z,26.83
2023-05-25T03:48:57.584Z,28.93
2023-05-25T03:51:24.519Z,27.17
2023-05-25T03:53:51.477Z,28.10
2023-05-25T03:56:18.452Z,32.00
2023-05-25T03:58:45.537Z,29.13
2023-05-25T04:01:13.536Z,32.57
2023-05-25T04:03:41.007Z,27.93
2023-05-25T04:06:08.799Z,26.63
2023-05-25T04:08:35.850Z,30.60
2023-05-25T04:11:04.912Z,31.83
2023-05-25T04:13:35.807Z,23.07
2023-05-25T04:16:03.429Z,25.57
2023-05-25T04:18:33.465Z,25.10
2023-05-25T04:21:01.291Z,26.57
2023-05-25T04:23:28.313Z,22.70
2023-05-25T04:25:55.478Z,22.97
2023-05-25T04:28:22.959Z,23.10
2023-05-25T04:30:57.243Z,25.40
2023-05-25T04:33:56.793Z,24.37
2023-05-25T04:36:29.986Z,21.30
2023-05-25T04:38:57.798Z,21.43
2023-05-25T04:41:25.962Z,24.97
2023-05-25T04:44:09.003Z,21.40
2023-05-25T04:46:40.719Z,21.00
2023-05-25T04:49:13.349Z,23.73
2023-05-25T04:51:40.542Z,21.53
2023-05-25T04:54:08.029Z,19.67
2023-05-25T04:56:35.093Z,19.73
2023-05-25T04:59:04.463Z,23.10
2023-05-25T05:01:34.411Z,20.33
2023-05-25T05:04:03.245Z,17.70
2023-05-25T05:06:30.221Z,17.70
2023-05-25T05:08:58.208Z,17.83
2023-05-25T05:11:25.163Z,21.90
2023-05-25T05:13:53.562Z,19.20
2023-05-25T05:16:20.822Z,20.37
2023-05-25T05:18:48.251Z,18.87
2023-05-25T05:21:15.391Z,19.50
2023-05-25T05:23:46.527Z,18.63
2023-05-25T05:26:15.316Z,18.93
2023-05-25T05:28:42.486Z,19.40
2023-05-25T05:31:09.896Z,19.80
2023-05-25T05:33:36.815Z,15.80
2023-05-25T05:36:04.910Z,16.13
2023-05-25T05:38:32.279Z,18.13
2023-05-25T05:40:59.425Z,14.43
2023-05-25T05:43:27.312Z,18.47
2023-05-25T05:45:54.704Z,17.30
2023-05-25T05:48:21.686Z,15.03
2023-05-25T05:50:49.740Z,17.73
2023-05-25T05:53:18.177Z,18.07
2023-05-25T05:55:45.979Z,19.37
2023-05-25T05:58:13.965Z,15.70
2023-05-25T06:00:41.070Z,13.03
2023-05-25T06:03:08.148Z,17.97
2023-05-25T06:05:35.274Z,13.47
2023-05-25T06:08:05.660Z,11.33
2023-05-25T06:10:34.753Z,12.57
2023-05-25T06:13:01.875Z,27.10
2023-05-25T06:15:28.855Z,13.47
2023-05-25T06:17:58.919Z,16.40
2023-05-25T06:20:26.562Z,13.10
2023-05-25T06:22:53.865Z,11.37
2023-05-25T06:25:21.085Z,15.60
2023-05-25T06:27:48.216Z,10.93
2023-05-25T06:30:15.267Z,14.53
2023-05-25T06:32:43.426Z,12.67
2023-05-25T06:35:14.731Z,13.73
2023-05-25T06:37:41.726Z,11.60
2023-05-25T06:40:10.439Z,11.00
2023-05-25T06:42:38.086Z,11.20
2023-05-25T06:45:06.531Z,12.40
2023-05-25T06:47:33.528Z,10.30
2023-05-25T06:50:00.979Z,11.73
2023-05-25T06:52:31.836Z,13.97
2023-05-25T06:54:58.837Z,10.63
2023-05-25T06:57:25.876Z,12.33
2023-05-25T06:59:52.834Z,11.20
2023-05-25T07:02:20.999Z,14.23
2023-05-25T07:04:48.105Z,12.40
2023-05-25T07:07:15.317Z,12.93
2023-05-25T07:09:42.274Z,10.37
2023-05-25T07:12:11.085Z,11.77
2023-05-25T07:14:38.437Z,13.63
2023-05-25T07:17:05.697Z,11.53
2023-05-25T07:19:32.925Z,9.20
2023-05-25T07:21:59.989Z,12.00
2023-05-25T07:24:26.843Z,11.83
2023-05-25T07:26:53.809Z,9.53
2023-05-25T07:29:21.079Z,10.03
2023-05-25T07:31:48.260Z,10.70
2023-05-25T07:34:15.617Z,9.67
2023-05-25T07:36:42.652Z,10.40
2023-05-25T07:39:11.335Z,13.37
2023-05-25T07:41:39.164Z,9.00
2023-05-25T07:44:06.163Z,9.87
2023-05-25T07:46:33.252Z,8.93
2023-05-25T07:49:00.144Z,9.23
2023-05-25T07:51:30.197Z,7.77
2023-05-25T07:53:58.243Z,8.67
2023-05-25T07:56:26.596Z,7.77
2023-05-25T07:58:53.610Z,10.53
2023-05-25T08:01:20.588Z,8.83
2023-05-25T08:03:50.088Z,8.87
2023-05-25T08:06:17.699Z,8.67
2023-05-25T08:08:45.068Z,9.77
2023-05-25T08:11:12.065Z,7.87
2023-05-25T08:13:39.456Z,9.90
2023-05-25T08:16:06.534Z,6.10
2023-05-25T08:18:33.513Z,7.87
2023-05-25T08:21:01.147Z,8.87
2023-05-25T08:23:28.186Z,8.20
2023-05-25T08:25:55.167Z,6.10
2023-05-25T08:28:22.867Z,9.30
2023-05-25T08:30:49.989Z,9.37
2023-05-25T08:33:17.063Z,7.43
2023-05-25T08:35:44.252Z,5.17
2023-05-25T08:38:11.463Z,11.53
2023-05-25T08:40:42.217Z,5.47
2023-05-25T08:43:09.389Z,6.67
2023-05-25T08:45:39.476Z,6.37
2023-05-25T08:48:26.888Z,8.43
2023-05-25T08:51:08.132Z,6.87
2023-05-25T08:53:39.046Z,6.03
2023-05-25T08:56:30.451Z,8.33
2023-05-25T08:59:13.913Z,6.67
2023-05-25T09:01:46.050Z,6.77
2023-05-25T09:04:14.761Z,7.67
2023-05-25T09:06:41.871Z,6.03
2023-05-25T09:09:09.563Z,7.00
2023-05-25T09:11:39.963Z,6.70
2023-05-25T09:14:11.544Z,6.13
2023-05-25T09:16:39.012Z,5.10
2023-05-25T09:19:06.049Z,8.23
2023-05-25T09:21:33.094Z,4.30
2023-05-25T09:24:01.601Z,5.93
2023-05-25T09:26:28.930Z,4.17
2023-05-25T09:28:55.973Z,5.27
2023-05-25T09:31:24.900Z,4.70
2023-05-25T09:33:55.594Z,4.33
2023-05-25T09:36:23.390Z,4.67
2023-05-25T09:38:53.953Z,10.53
2023-05-25T09:41:21.958Z,5.77
2023-05-25T09:44:02.235Z,5.57
2023-05-25T09:46:39.000Z,6.10
2023-05-25T09:49:08.978Z,6.47
2023-05-25T09:51:37.050Z,6.67
2023-05-25T09:54:08.739Z,5.40
2023-05-25T09:56:36.420Z,8.30
2023-05-25T09:59:03.814Z,10.60
2023-05-25T10:01:33.496Z,6.67
2023-05-25T10:04:04.624Z,5.47
2023-05-25T10:06:33.808Z,6.90
2023-05-25T10:09:01.820Z,10.83
2023-05-25T10:11:29.653Z,7.13
2023-05-25T10:13:59.102Z,5.07
2023-05-25T10:16:29.588Z,7.03
2023-05-25T10:19:03.845Z,5.90
2023-05-25T10:21:31.775Z,7.40
2023-05-25T10:24:06.300Z,5.67
2023-05-25T10:26:40.741Z,6.83
2023-05-25T10:29:09.412Z,5.23
2023-05-25T10:31:37.739Z,5.00
2023-05-25T10:34:04.949Z,7.97
2023-05-25T10:36:34.335Z,7.13
2023-05-25T10:39:03.297Z,9.00
2023-05-25T10:41:30.386Z,7.40
2023-05-25T10:43:57.482Z,7.20
2023-05-25T10:46:24.587Z,9.20
2023-05-25T10:48:52.990Z,7.23
2023-05-25T10:51:21.009Z,9.70
2023-05-25T10:53:59.905Z,7.03
2023-05-25T10:56:26.884Z,10.43
2023-05-25T10:58:53.874Z,7.63
2023-05-25T11:01:21.289Z,8.10
2023-05-25T11:04:15.727Z,7.10
2023-05-25T11:06:46.082Z,8.10
2023-05-25T11:09:26.909Z,6.40
2023-05-25T11:11:55.634Z,7.30
2023-05-25T11:14:32.169Z,6.40
2023-05-25T11:17:12.907Z,7.80
2023-05-25T11:19:52.897Z,6.77
2023-05-25T11:22:21.438Z,6.90
2023-05-25T11:24:49.013Z,6.63
2023-05-25T11:27:16.089Z,9.53
2023-05-25T11:29:43.693Z,6.47
2023-05-25T11:32:14.699Z,8.53
2023-05-25T11:34:46.935Z,6.93
2023-05-25T11:37:17.460Z,10.17
2023-05-25T11:39:51.662Z,7.83
2023-05-25T11:42:22.957Z,7.00
2023-05-25T11:44:50.421Z,7.43
2023-05-25T11:47:22.778Z,8.80
2023-05-25T11:49:50.037Z,9.20
2023-05-25T11:52:19.146Z,8.40
2023-05-25T11:54:46.819Z,9.83
2023-05-25T11:57:20.620Z,11.07
2023-05-25T11:59:50.260Z,9.63
2023-05-25T12:02:17.641Z,6.80
2023-05-25T12:04:54.374Z,5.63
2023-05-25T12:07:21.491Z,5.67
2023-05-25T12:09:48.404Z,6.20
2023-05-25T12:12:15.790Z,5.97
2023-05-25T12:14:51.949Z,5.43
2023-05-25T12:17:21.695Z,4.83
2023-05-25T12:19:49.030Z,4.53
2023-05-25T12:22:16.517Z,6.27
2023-05-25T12:24:43.597Z,7.43
2023-05-25T12:27:21.101Z,5.47
2023-05-25T12:29:48.634Z,5.87
2023-05-25T12:32:16.031Z,5.03
2023-05-25T12:34:43.586Z,6.30
2023-05-25T12:37:22.974Z,4.93
2023-05-25T12:39:50.739Z,6.57
2023-05-25T12:42:18.349Z,4.60
2023-05-25T12:44:46.760Z,5.20
2023-05-25T12:47:23.128Z,5.93
2023-05-25T12:49:52.142Z,8.97
2023-05-25T12:52:33.184Z,5.10
2023-05-25T12:55:19.309Z,5.93
2023-05-25T12:57:55.706Z,4.30
2023-05-25T13:00:34.527Z,6.23
2023-05-25T13:03:02.374Z,5.27
2023-05-25T13:05:34.127Z,4.70
2023-05-25T13:08:03.063Z,4.33
2023-05-25T13:10:31.044Z,6.27
2023-05-25T13:12:59.366Z,3.67
2023-05-25T13:15:27.270Z,5.60
2023-05-25T13:17:54.930Z,4.40
2023-05-25T13:20:23.602Z,5.47
2023-05-25T13:22:52.482Z,4.83
2023-05-25T13:25:21.932Z,4.27
2023-05-25T13:27:51.402Z,5.13
2023-05-25T13:30:21.025Z,4.83
2023-05-25T13:32:50.421Z,3.73
2023-05-25T13:35:23.225Z,3.77
2023-05-25T13:37:51.397Z,3.90
2023-05-25T13:40:19.165Z,6.33
2023-05-25T13:42:46.268Z,6.50
2023-05-25T13:45:13.963Z,4.27
2023-05-25T13:47:43.429Z,3.87
2023-05-25T13:50:11.680Z,4.80
2023-05-25T13:52:38.746Z,3.97
2023-05-25T13:55:06.291Z,4.43
2023-05-25T13:57:33.332Z,4.47
2023-05-25T14:00:00.272Z,3.93
2023-05-25T14:02:27.305Z,4.60
2023-05-25T14:04:54.541Z,7.03
2023-05-25T14:07:21.494Z,5.10
2023-05-25T14:09:48.416Z,6.30
2023-05-25T14:12:15.828Z,3.90
2023-05-25T14:14:42.736Z,4.47
2023-05-25T14:17:09.727Z,4.30
2023-05-25T14:19:36.661Z,3.90
2023-05-25T14:22:13.331Z,4.80
2023-05-25T14:24:42.245Z,8.50
2023-05-25T14:27:09.581Z,4.80
2023-05-25T14:29:36.977Z,6.00
2023-05-25T14:32:04.556Z,5.00
2023-05-25T14:34:31.540Z,4.53
2023-05-25T14:36:58.422Z,4.30
2023-05-25T14:39:26.061Z,5.67
2023-05-25T14:41:52.981Z,5.57
2023-05-25T14:44:20.004Z,4.30
2023-05-25T14:46:47.225Z,3.77
2023-05-25T14:49:14.206Z,6.37
2023-05-25T14:51:41.090Z,5.60
2023-05-25T14:54:08.148Z,3.73
2023-05-25T14:56:35.521Z,7.20
2023-05-25T14:59:02.517Z,6.17
2023-05-25T15:01:29.881Z,4.77
2023-05-25T15:03:57.317Z,3.90
2023-05-25T15:06:24.559Z,5.47
2023-05-25T15:08:52.095Z,4.00
2023-05-25T15:11:19.048Z,4.10
2023-05-25T15:13:46.412Z,3.37
2023-05-25T15:16:14.216Z,6.70
2023-05-25T15:18:41.401Z,4.10
2023-05-25T15:21:09.069Z,4.07
2023-05-25T15:23:36.717Z,5.07
2023-05-25T15:26:07.778Z,4.80
2023-05-25T15:28:34.971Z,3.53
2023-05-25T15:31:03.368Z,4.40
2023-05-25T15:33:47.886Z,4.43
2023-05-25T15:36:18.710Z,4.23
2023-05-25T15:38:49.099Z,4.67
2023-05-25T15:41:17.488Z,3.90
2023-05-25T15:43:54.741Z,4.13
2023-05-25T15:46:22.019Z,5.27
2023-05-25T15:48:49.060Z,4.20
2023-05-25T15:51:16.168Z,3.57
2023-05-25T15:53:43.081Z,4.63
2023-05-25T15:56:10.084Z,5.50
2023-05-25T15:58:37.020Z,6.20
2023-05-25T16:01:04.425Z,5.17
2023-05-25T16:03:31.375Z,4.63
2023-05-25T16:05:58.494Z,4.07
2023-05-25T16:08:25.348Z,5.83
2023-05-25T16:10:52.341Z,3.43
2023-05-25T16:13:19.535Z,6.90
2023-05-25T16:15:46.745Z,4.23
2023-05-25T16:18:16.601Z,8.70
2023-05-25T16:20:44.169Z,5.30
2023-05-25T16:23:11.268Z,76.73
2023-05-25T16:25:38.233Z,4.33
2023-05-25T16:28:05.276Z,7.07
2023-05-25T16:30:34.442Z,568.73
2023-05-25T16:33:01.306Z,557.00
2023-05-25T16:35:28.275Z,213.43
2023-05-25T16:37:55.146Z,499.47
2023-05-25T16:40:22.056Z,39.23
2023-05-25T16:42:48.968Z,18.97
2023-05-25T16:45:16.112Z,11.20
2023-05-25T16:47:43.065Z,6.43
2023-05-25T16:50:10.526Z,11.80
2023-05-25T16:52:37.454Z,5.90
2023-05-25T16:55:04.881Z,5.33
2023-05-25T16:57:31.810Z,8.50
2023-05-25T16:59:58.758Z,222.07
2023-05-25T17:02:26.160Z,469.20
2023-05-25T17:04:53.241Z,499.97
2023-05-25T17:07:20.189Z,102.47
2023-05-25T17:09:47.209Z,10.20
2023-05-25T17:12:14.184Z,11.13
2023-05-25T17:14:41.152Z,6.37
2023-05-25T17:17:08.052Z,6.17
2023-05-25T17:19:35.111Z,8.47
2023-05-25T17:22:02.056Z,10.73
2023-05-25T17:24:29.073Z,7.13
2023-05-25T17:26:56.165Z,10.77
2023-05-25T17:29:23.205Z,13.83
2023-05-25T17:31:50.140Z,17.20
2023-05-25T17:34:17.306Z,7.63
2023-05-25T17:36:44.241Z,16.53
2023-05-25T17:39:11.209Z,7.17
2023-05-25T17:41:38.284Z,6.00
2023-05-25T17:44:05.218Z,11.40
2023-05-25T17:46:32.209Z,9.53
2023-05-25T17:48:59.930Z,9.77
2023-05-25T17:51:26.830Z,7.20
2023-05-25T17:53:53.809Z,7.77
2023-05-25T17:56:21.786Z,6.90
2023-05-25T17:58:48.874Z,8.07
2023-05-25T18:01:16.177Z,13.97
2023-05-25T18:03:43.456Z,80.57
2023-05-25T18:06:10.840Z,11.37
2023-05-25T18:08:37.850Z,9.23
2023-05-25T18:11:05.610Z,8.00
2023-05-25T18:13:32.595Z,7.37
2023-05-25T18:15:59.737Z,8.97
2023-05-25T18:18:27.032Z,6.93
2023-05-25T18:20:53.966Z,8.30
2023-05-25T18:23:22.178Z,7.30
2023-05-25T18:25:49.184Z,8.87
2023-05-25T18:28:16.181Z,6.80
2023-05-25T18:30:43.301Z,7.90
2023-05-25T18:33:10.993Z,9.87
2023-05-25T18:35:38.281Z,11.50
2023-05-25T18:38:06.759Z,7.17
2023-05-25T18:40:34.092Z,15.47
2023-05-25T18:43:01.157Z,10.67
2023-05-25T18:45:28.063Z,11.23
2023-05-25T18:47:55.453Z,9.30
2023-05-25T18:50:22.387Z,9.37
2023-05-25T18:52:51.276Z,11.37
2023-05-25T18:55:19.238Z,10.57
2023-05-25T18:57:46.753Z,8.60
2023-05-25T19:00:14.506Z,11.27
2023-05-25T19:02:41.820Z,11.70
2023-05-25T19:05:11.629Z,13.47
2023-05-25T19:07:51.154Z,16.20
2023-05-25T19:10:25.459Z,11.03
2023-05-25T19:12:52.617Z,12.63
2023-05-25T19:15:19.799Z,12.80
2023-05-25T19:17:47.209Z,14.50
2023-05-25T19:20:14.742Z,14.37
2023-05-25T19:22:41.968Z,12.40
2023-05-25T19:25:09.168Z,11.00
2023-05-25T19:27:36.590Z,13.47
2023-05-25T19:30:04.027Z,13.87
2023-05-25T19:32:31.148Z,13.37
2023-05-25T19:34:58.316Z,13.87
2023-05-25T19:37:25.922Z,16.77
2023-05-25T19:39:52.850Z,13.33
2023-05-25T19:42:19.813Z,12.77
2023-05-25T19:44:46.980Z,13.27
2023-05-25T19:47:13.949Z,14.83
2023-05-25T19:49:41.028Z,13.77
2023-05-25T19:52:07.994Z,14.90
2023-05-25T19:54:35.269Z,17.83
2023-05-25T19:57:02.989Z,16.47
2023-05-25T19:59:31.470Z,15.70
2023-05-25T20:01:58.822Z,15.27
2023-05-25T20:04:25.889Z,15.87
2023-05-25T20:06:53.761Z,15.13
2023-05-25T20:09:29.745Z,19.93
2023-05-25T20:12:00.123Z,21.03
2023-05-25T20:14:27.092Z,18.43
2023-05-25T20:16:57.104Z,18.83
2023-05-25T20:19:23.999Z,20.60
2023-05-25T20:21:51.665Z,15.67
2023-05-25T20:24:18.714Z,17.93
2023-05-25T20:26:45.851Z,16.60
2023-05-25T20:29:12.785Z,17.43
2023-05-25T20:31:40.562Z,15.73
2023-05-25T20:34:07.563Z,19.50
2023-05-25T20:36:34.608Z,18.03
2023-05-25T20:39:03.007Z,20.20
2023-05-25T20:41:29.982Z,16.83
2023-05-25T20:43:56.963Z,21.80
2023-05-25T20:46:24.052Z,21.57
2023-05-25T20:48:51.987Z,17.17
2023-05-25T20:51:19.240Z,18.33
2023-05-25T20:53:46.222Z,18.83
2023-05-25T20:56:13.146Z,17.33
2023-05-25T20:58:40.959Z,18.13
2023-05-25T21:01:08.331Z,18.57
2023-05-25T21:03:35.502Z,22.40
2023-05-25T21:06:02.647Z,18.27
2023-05-25T21:08:29.656Z,22.20
2023-05-25T21:10:56.991Z,18.57
2023-05-25T21:13:23.873Z,17.00
2023-05-25T21:15:50.926Z,19.97
2023-05-25T21:18:17.879Z,21.40
2023-05-25T21:20:44.903Z,16.87
2023-05-25T21:23:11.868Z,19.03
2023-05-25T21:25:38.796Z,18.70
2023-05-25T21:28:06.813Z,17.67
2023-05-25T21:30:34.045Z,22.27
2023-05-25T21:33:00.943Z,16.77
2023-05-25T21:35:27.949Z,24.87
2023-05-25T21:37:55.098Z,18.63
2023-05-25T21:40:22.103Z,14.77
2023-05-25T21:42:51.078Z,15.60
2023-05-25T21:45:18.491Z,18.77
2023-05-25T21:47:45.457Z,15.70
2023-05-25T21:50:12.518Z,16.97
2023-05-25T21:52:39.747Z,15.60
2023-05-25T21:55:07.071Z,20.33
2023-05-25T21:57:33.961Z,20.17
2023-05-25T22:00:01.069Z,16.33
2023-05-25T22:02:28.061Z,18.10
2023-05-25T22:04:55.088Z,14.27
2023-05-25T22:07:22.117Z,18.47
2023-05-25T22:09:49.116Z,17.57
2023-05-25T22:12:16.077Z,14.17
2023-05-25T22:14:43.158Z,15.27
2023-05-25T22:17:10.405Z,17.43
2023-05-25T22:19:37.555Z,19.70
2023-05-25T22:22:04.936Z,16.30
2023-05-25T22:24:31.977Z,16.77
2023-05-25T22:26:58.867Z,19.70
2023-05-25T22:29:26.158Z,19.93
2023-05-25T22:31:53.109Z,14.50
2023-05-25T22:34:20.812Z,18.50
2023-05-25T22:36:47.808Z,21.93
2023-05-25T22:39:14.822Z,15.73
2023-05-25T22:41:41.780Z,18.83
2023-05-25T22:44:08.772Z,18.80
2023-05-25T22:46:35.982Z,25.03
2023-05-25T22:49:03.017Z,20.73
2023-05-25T22:51:30.064Z,19.00
2023-05-25T22:53:57.077Z,18.30
2023-05-25T22:56:24.133Z,22.67
2023-05-25T22:58:51.155Z,22.63
2023-05-25T23:01:18.140Z,18.60
2023-05-25T23:03:45.264Z,20.80
2023-05-25T23:06:12.307Z,19.73
2023-05-25T23:08:39.478Z,22.30
2023-05-25T23:11:06.483Z,19.60
2023-05-25T23:13:33.549Z,19.60
2023-05-25T23:16:00.505Z,15.33
2023-05-25T23:18:27.531Z,17.40
2023-05-25T23:20:54.530Z,20.80
2023-05-25T23:23:21.535Z,22.80
2023-05-25T23:25:48.479Z,19.93
2023-05-25T23:28:15.504Z,15.57
2023-05-25T23:30:42.464Z,23.27
2023-05-25T23:33:10.474Z,18.03
2023-05-25T23:35:37.596Z,20.47
2023-05-25T23:38:05.625Z,22.93
2023-05-25T23:40:32.602Z,22.77
2023-05-25T23:42:59.661Z,20.50
2023-05-25T23:45:27.272Z,21.67
2023-05-25T23:47:54.510Z,21.57
2023-05-25T23:50:21.845Z,22.63
2023-05-25T23:52:48.810Z,20.57
2023-05-25T23:55:15.738Z,20.97
2023-05-25T23:57:42.752Z,21.30
